Main page
METAR-TAF:

METAR-TAF

Airports :

Nîmes–Alès–Camargue–Cévennes Airport

Nîmes, France

latitude: 43-45N, longitude: 004-25E, elevation: 94 m

Current weather observation

The report was made 36 minutes ago, at 18:30 UTC
Wind 6 kt from the North/Northeast
Temperature 5°C
Humidity 45%
Pressure 1015 hPa
Visibility 10 km or more
no clouds below 1500 m and no cumulonimbus

METAR: LFTW 181830Z AUTO 02006KT CAVOK 05/M06 Q1015 NOSIG

Time: 20:06 (19:06 UTC)

Forecast

The report was made 5 hours and 6 minutes ago, at 14:00 UTC
Forecast valid from 18 at 15 UTC to 19 at 15 UTC
Wind 10 kt from the North
Visibility 10 km or more
no clouds below 1500 m and no cumulonimbus
Becoming
from 19 at 12 UTC to 19 at 14 UTC
Wind 2 kt from variable directions

TAF: LFTW 181400Z 1815/1915 36010KT CAVOK BECMG 1912/1914 VRB02KT

Weather observations and forecasts of more than 4000 airports (METAR and TAF reports).

The available stations are represented by yellow and red dots on the map.

Hover mouse over dot to see the name of the station.

Then click to see weather observations and forecasts.

To change the map : click on the green buttons with a black cross to zoom in, on the green button with a dash to zoom out, or on the green arrows for adjacent maps.


METAR-TAF: